Ufuk Dursun

Chefscout - Besiktas
26 Dez 2028
Dienstag
Verarbeitung

Persönlichkeit

Anpassungsfähigkeit (14) Ehrgeiz (12) Kontroverse (10) Loyalität (16) Druck (10) Professionalität (17) Fairness (11) Temperament (11)

Profil

Trainerstil Demokratisch
Lizenz Kontinentale C
Entschlossenheit 12
Menschenführung 10
Motivation 14
Disziplin 7
Arbeitszufriedenheit
100%
Ermüdung
0%
Rolle Chefscout
Gehalt 89.1K p/W
Vertrag 14.03.2030

Leistung

Verhalten Gut
Trainingseffektivität
51%
Spielerentwicklung
75%
Verletzungsprävention
60%
Taktische Umsetzung
55%

Aktuell beobachtet

97
Spieler Verein Status Fähigkeit Vertrauen Beobachtet Zuletzt beobachtet Letzte Stimme
Eldor Shomurodov Basaksehir Verloren 130 / 137 72% 1 07.08.2028 Befürworten
Paul Onuachu Trabzonspor Verloren 132 / 123 72% 1 10.07.2028 Befürworten
Meschack Elia Alanyaspor Aktiv 131 / 116 69% 1 02.06.2028 Befürworten
Harry Clarke Preston Aktiv 141 / 139 40% 1 01.06.2028 -
Tom Fellows Southampton Aktiv 145 / 134 40% 1 01.06.2028 -
Jack Rudoni Coventry City Aktiv 140 / 137 40% 1 01.06.2028 -
Babis Kostoulas Manchester City Aktiv 136 / 151 40% 1 27.01.2028 -
Oscar Schwartau Norwich City Aktiv 125 / 137 40% 1 27.01.2028 -
Harry Amass Manchester United Aktiv 142 / 149 40% 2 26.01.2028 -
Jaydee Canvot Crystal Palace Aktiv 145 / 148 40% 2 24.01.2028 -
Juan Giménez Rosario Central Aktiv 118 / 127 40% 2 24.01.2028 -
Nahuel Leivas Montevideo City Torque Aktiv 113 / 99 40% 1 17.01.2028 -
Abubacarr Sedi Kinteh Al-Khaleej Aktiv 141 / 140 40% 1 17.01.2028 -
Luca Bombino San Diego Football Club Aktiv 96 / 124 40% 2 10.01.2028 -
Miguel Figueiredo Benfica Aktiv 120 / 128 40% 1 10.01.2028 -
Sebastián Ramírez Deportivo Pasto Aktiv 105 / 108 40% 1 10.01.2028 -
Luis Otávio Sporting Kansas City Aktiv 104 / 131 40% 1 06.01.2028 -
Lucas Pyziak Vélez Aktiv 113 / 111 40% 1 06.01.2028 -
Nicolás Fernández Mercau New York City Verloren 146 / 130 40% 3 30.08.2027 Beobachten
Thiago Almada AC Milan Aktiv 147 / 160 40% 1 30.08.2027 Mehr Infos nötig
Lucas Piton Vasco da Gama Aktiv 143 / 126 40% 1 29.08.2027 -
Boubacar Kamara Aston Villa Aktiv 171 / 164 40% 1 29.08.2027 -
Marcos Antonio Sport Recife Aktiv 130 / 138 40% 2 28.08.2027 -
Fredrik Sjøvold Bodo/Glimt Aktiv 142 / 152 40% 1 28.08.2027 -
Matías Palacios Al Ain Aktiv 147 / 124 40% 1 28.08.2027 -
Erick Sánchez Botafogo Aktiv 155 / 140 40% 4 25.08.2027 -
Lesley Ugochukwu Burnley Aktiv 147 / 144 40% 1 25.08.2027 -
Jens Petter Hauge Bodo/Glimt Aktiv 130 / 129 40% 4 21.08.2027 -
Facundo Torres Austin FC Aktiv 130 / 150 40% 4 21.08.2027 -
Nuno Tavares Lazio Aktiv 144 / 158 40% 1 19.08.2027 -
Brooke Norton-Cuffy Genoa Aktiv 146 / 150 40% 1 19.08.2027 -
Jayden Addai Como Aktiv 137 / 136 40% 2 18.08.2027 -
Samuele Angori Pisa Aktiv 129 / 131 40% 1 18.08.2027 -
Tommaso Barbieri Cremonese Aktiv 129 / 146 40% 1 18.08.2027 -
Pedro de la Vega Seattle Sounders Aktiv 147 / 133 40% 2 17.08.2027 -
Cristian Shpendi Cesena Aktiv 146 / 129 40% 3 17.08.2027 -
Raoul Bellanova Atalanta Aktiv 150 / 153 40% 1 17.08.2027 -
Mikael Egill Ellertsson Genoa Aktiv 138 / 135 40% 1 15.08.2027 -
Nicolò Cambiaghi Bologna Aktiv 151 / 146 40% 1 15.08.2027 -
Martin Baturina Como Aktiv 140 / 151 40% 1 14.08.2027 -
Cher Ndour Fiorentina Aktiv 142 / 141 40% 1 14.08.2027 -
Michel Ndary Adopo Cagliari Aktiv 144 / 139 40% 1 12.08.2027 -
Javi Rueda Celta Aktiv 138 / 144 40% 2 11.08.2027 -
Lucas Da Cunha Como Aktiv 142 / 155 40% 1 11.08.2027 -
Luís Henrique Inter Aktiv 140 / 142 40% 1 11.08.2027 -
Mahamadou Doumbia Al-Ittihad Aktiv 150 / 140 40% 4 10.08.2027 -
Ismaël Koné Sassuolo Aktiv 141 / 138 40% 3 10.08.2027 -
Romano Schmid Torino Aktiv 150 / 137 40% 1 10.08.2027 -
Jordan Zemura Udinese Aktiv 134 / 128 40% 1 08.08.2027 -
Felipe Obradovich Gimnasia La Plata Aktiv 111 / 118 40% 2 06.08.2027 -
Matías Gómez Independiente Aktiv 123 / 133 40% 2 06.08.2027 -
Armando Broja Burnley Aktiv 147 / 148 40% 1 05.08.2027 -
Håkon Evjen Bodo/Glimt Aktiv 137 / 127 40% 1 02.08.2027 -
Haissem Hassan Corinthians Aktiv 136 / 125 40% 1 01.08.2027 -
Yasin Özcan Aston Villa Aktiv 115 / 127 40% 1 01.08.2027 -
Paxten Aaronson Colorado Rapids Aktiv 129 / 130 40% 1 30.07.2027 -
Fabiano Parisi Fiorentina Aktiv 134 / 138 40% 1 29.07.2027 -
Enzo Cardozo Defensa y Justicia Aktiv 117 / 118 40% 1 27.07.2027 -
Josh Acheampong Chelsea Aktiv 139 / 151 40% 1 26.07.2027 -
Pedro Henrique Shakhtar Aktiv 144 / 128 40% 3 24.07.2027 -
Mattéo Tramoni Pisa Aktiv 138 / 140 40% 2 21.07.2027 -
Sidny Lopes Cabral Trabzonspor Aktiv 137 / 144 40% 1 20.07.2027 -
Batista Mendy Trabzonspor Aktiv 139 / 134 40% 1 15.07.2027 -
Kota Tawaratsumida FC Tokyo Aktiv 132 / 136 40% 1 12.07.2027 -
Alexis Fretes Libertad Aktiv 111 / 117 40% 1 12.07.2027 -
Gustavo Mantuan Zenit Aktiv 129 / 121 40% 5 07.07.2027 -
Mauricio Amaro Atlanta United FC Aktiv 131 / 115 40% 1 06.07.2027 -
Ernest Muçi Trabzonspor Aktiv 145 / 129 40% 5 04.07.2027 Beobachten
Álvaro Rodríguez Bournemouth Aktiv 140 / 146 40% 1 04.07.2027 -
Bitello Dinamo Moscow Aktiv 151 / 155 40% 2 03.07.2027 -
Arjan Malić Sturm Graz Aktiv 126 / 137 40% 1 03.07.2027 -
Yacine Adli Al-Shabab Aktiv 140 / 154 40% 1 28.06.2027 -
Brenden Aaronson Leeds United Aktiv 145 / 147 40% 2 27.06.2027 -
Shuto Nakano Sanfrecce Hiroshima Aktiv 136 / 140 40% 1 26.06.2027 -
Noah Maieroni Brisbane Roar Aktiv 88 / 109 40% 1 26.06.2027 -
Juan Manuel Villalba Estudiantes Aktiv 127 / 121 40% 1 25.06.2027 -
Ishé Samuels-Smith Chelsea Aktiv 109 / 127 40% 1 25.06.2027 -
Jordan Beyer Burnley Aktiv 137 / 137 40% 3 24.06.2027 -
Christian Krasnodar Aktiv 127 / 145 40% 1 23.06.2027 -
Unai Gómez Udinese Aktiv 142 / 144 40% 1 18.06.2027 -
Alvyn Sanches Young Boys Aktiv 137 / 137 40% 1 18.06.2027 -
Pedro Malheiro Al Wasl Aktiv 149 / 146 40% 1 17.06.2027 -
Marlon Gomes Shakhtar Aktiv 142 / 137 40% 1 16.06.2027 -
Fer López Wolverhampton Aktiv 138 / 130 40% 2 15.06.2027 -
Abbosbek Fayzullayev Basaksehir Aktiv 121 / 135 40% 1 02.01.2027 -
Jesus Ferreira Seattle Sounders Aktiv 127 / 134 40% 1 30.08.2026 -
Conrad Wallem Banik Ostrava Aktiv 120 / 114 40% 1 30.08.2026 -
Evander FC Cincinnati Aktiv 126 / 130 40% 2 28.08.2026 -
Maurits Kjærgaard Red Bull Salzburg Aktiv 128 / 130 40% 1 28.08.2026 -
Djordje Mihailović Toronto FC Aktiv 119 / 146 40% 2 26.08.2026 -
Jonathan Bamba Chicago Fire Aktiv 133 / 139 40% 1 26.08.2026 -
João Klauss LA Galaxy Aktiv 116 / 115 40% 1 26.08.2026 -
Sam Surridge Nashville SC Aktiv 136 / 124 40% 1 26.08.2026 -
Eduard Löwen San Jose Earthquakes Aktiv 136 / 115 40% 1 23.08.2026 -
Martín Ojeda Orlando City Aktiv 120 / 132 40% 1 16.08.2026 -
Brais Méndez Columbus Crew Aktiv 150 / 151 40% 1 03.08.2026 -
Federico Dimarco Inter Aktiv 159 / 161 40% 1 01.08.2026 -